Time;durP1;ratioP1;P1;durP2;ratioP2;P2;SDS_P1;SDS_P2;PMS_P1;PMS_P2;Temp;Humidity;BMP_temperature;BMP_pressure;BME280_temperature;BME280_humidity;BME280_pressure;Samples;Min_cycle;Max_cycle;Signal;HPM_P1;HPM_P2
2023/07/18 04:32:49;;;;;;;3.97;1.17;;;16.20;70.80;;;;;;4875412;29;20436;-83
2023/07/18 04:35:15;;;;;;;4.63;1.42;;;16.20;70.80;;;;;;4881965;29;20059;-83
2023/07/18 04:37:40;;;;;;;6.15;1.70;;;16.30;71.00;;;;;;4866766;29;20063;-83
2023/07/18 04:40:08;;;;;;;4.93;1.30;;;16.30;70.90;;;;;;4880437;29;20029;-83
2023/07/18 04:42:34;;;;;;;3.70;1.60;;;16.30;70.90;;;;;;4881544;29;20516;-83
2023/07/18 04:45:00;;;;;;;4.05;1.30;;;16.30;70.90;;;;;;4882207;29;20088;-84
2023/07/18 04:47:26;;;;;;;3.30;1.20;;;16.30;70.80;;;;;;4875382;29;20134;-84
2023/07/18 04:50:05;;;;;;;4.50;1.38;;;16.30;70.60;;;;;;4865521;29;20484;-85
2023/07/18 04:52:30;;;;;;;4.18;1.50;;;16.30;70.60;;;;;;4882916;29;20472;-87
2023/07/18 04:54:56;;;;;;;2.67;1.33;;;16.30;70.90;;;;;;4854225;29;20137;-84
2023/07/18 04:57:24;;;;;;;6.85;1.73;;;16.30;70.90;;;;;;4863812;29;20042;-86
2023/07/18 04:59:50;;;;;;;3.78;1.38;;;16.30;71.10;;;;;;4866741;29;20025;-83
2023/07/18 05:02:16;;;;;;;4.68;1.48;;;16.30;71.20;;;;;;4893646;29;20041;-81
2023/07/18 05:11:54;;;;;;;5.95;1.58;;;16.40;71.00;;;;;;4693683;30;19929;-85
2023/07/18 05:14:27;;;;;;;5.45;1.42;;;16.40;70.80;;;;;;4683118;30;20473;-86
2023/07/18 05:16:52;;;;;;;;;;;16.30;71.00;;;;;;4712055;30;20053;-82
2023/07/18 05:19:18;;;;;;;4.38;1.60;;;16.30;71.30;;;;;;4850702;29;20426;-81
2023/07/18 05:21:44;;;;;;;3.40;1.40;;;16.30;71.00;;;;;;4847920;29;20556;-83
2023/07/18 05:24:19;;;;;;;3.33;1.50;;;16.30;70.90;;;;;;4845143;29;20108;-83
2023/07/18 05:44:49;;;;;;;5.78;1.70;;;16.60;71.20;;;;;;4660943;30;20042;-78
2023/07/18 05:47:24;;;;;;;5.38;1.40;;;16.60;71.00;;;;;;4742218;30;20090;-86
2023/07/18 08:00:27;;;;;;;6.07;2.00;;;35.80;27.60;;;;;;4893036;29;20049;-89
2023/07/18 08:38:49;;;;;;;;;;;;;;;;;;;;;
2023/07/18 08:52:45;;;;;;;5.25;2.20;;;38.20;24.40;;;;;;4726739;30;20473;-84
2023/07/18 08:55:39;;;;;;;;;;;;;;;;;;;;;
2023/07/18 08:58:46;;;;;;;;;;;;;;;;;;;;;
2023/07/18 09:01:22;;;;;;;4.63;2.40;;;35.80;27.10;;;;;;4738299;30;20054;-86
2023/07/18 09:04:08;;;;;;;6.13;2.28;;;35.50;27.50;;;;;;4821300;29;20097;-86
2023/07/18 09:06:36;;;;;;;5.40;2.22;;;35.80;27.50;;;;;;4916799;29;20063;-85
2023/07/18 09:09:47;;;;;;;;;;;;;;;;;;;;;
2023/07/18 09:12:33;;;;;;;7.22;2.28;;;35.60;28.20;;;;;;4922533;29;20135;-86
2023/07/18 09:15:21;;;;;;;4.55;1.92;;;35.50;27.50;;;;;;4916324;29;20044;-86
2023/07/18 09:17:55;;;;;;;9.73;1.92;;;35.30;27.60;;;;;;4819877;29;20464;-87
2023/07/18 09:20:32;;;;;;;6.93;2.38;;;34.90;28.60;;;;;;4841629;29;20037;-86
2023/07/18 09:22:59;;;;;;;6.50;2.30;;;34.70;28.20;;;;;;4902328;29;20091;-85
2023/07/18 09:25:26;;;;;;;5.03;2.00;;;34.20;27.90;;;;;;4938846;29;20108;-86
2023/07/18 09:27:58;;;;;;;4.32;1.50;;;34.50;29.00;;;;;;4916749;29;20033;-86
2023/07/18 09:30:36;;;;;;;4.65;1.80;;;34.60;27.80;;;;;;4917375;29;20031;-87
2023/07/18 09:33:09;;;;;;;5.18;2.00;;;34.90;28.20;;;;;;4921390;29;20401;-87
2023/07/18 09:36:03;;;;;;;4.25;1.90;;;35.60;27.70;;;;;;4921260;29;20039;-87
2023/07/18 09:38:51;;;;;;;4.75;2.13;;;36.10;27.00;;;;;;4921432;29;20042;-86
2023/07/18 09:41:57;;;;;;;4.93;2.05;;;36.40;27.00;;;;;;4924686;29;20068;-86
2023/07/18 09:51:07;;;;;;;4.03;2.15;;;37.70;25.70;;;;;;4847124;29;20536;-85
2023/07/18 09:53:56;;;;;;;6.00;2.95;;;37.60;24.30;;;;;;4833323;29;20042;-86
2023/07/18 10:00:18;;;;;;;5.55;2.30;;;37.90;25.70;;;;;;4864430;29;20120;-86
2023/07/18 10:02:47;;;;;;;3.78;2.30;;;37.60;25.70;;;;;;4843331;29;20049;-85
2023/07/18 10:05:19;;;;;;;4.68;2.00;;;37.90;26.00;;;;;;4874204;29;20029;-86
2023/07/18 10:07:50;;;;;;;3.50;1.75;;;37.50;25.40;;;;;;4859154;29;20536;-86
2023/07/18 10:10:17;;;;;;;3.85;2.03;;;36.90;26.20;;;;;;4836121;29;20057;-86
2023/07/18 10:12:54;;;;;;;10.93;2.10;;;36.70;27.20;;;;;;4848912;29;20478;-86
2023/07/18 10:15:27;;;;;;;4.93;2.33;;;36.50;26.70;;;;;;4868088;29;20039;-87
2023/07/18 10:18:28;;;;;;;4.72;1.95;;;36.30;27.00;;;;;;4933201;29;20038;-86
2023/07/18 10:21:34;;;;;;;5.57;2.25;;;36.00;26.40;;;;;;4907044;29;20471;-88
2023/07/18 10:24:54;;;;;;;3.15;1.73;;;35.90;27.70;;;;;;4923007;29;20044;-85
2023/07/18 10:27:24;;;;;;;4.38;1.85;;;36.00;28.00;;;;;;4900073;29;20044;-86
2023/07/18 10:31:04;;;;;;;5.50;2.17;;;35.80;27.20;;;;;;4924623;29;20032;-86
2023/07/18 10:37:13;;;;;;;4.57;2.20;;;35.90;28.20;;;;;;4739776;30;20047;-87
2023/07/18 10:40:28;;;;;;;3.45;1.85;;;36.10;27.30;;;;;;4740942;30;20037;-86
2023/07/18 10:43:46;;;;;;;5.82;1.80;;;36.00;28.30;;;;;;4704414;30;20061;-87
2023/07/18 10:46:43;;;;;;;;;;;;;;;;;;;;;
2023/07/18 10:49:11;;;;;;;4.28;1.77;;;34.60;29.90;;;;;;4701124;30;20056;-87
2023/07/18 10:52:30;;;;;;;;;;;;;;;;;;;;;
2023/07/18 11:02:48;;;;;;;6.18;1.88;;;32.80;31.90;;;;;;4808354;29;20114;-86
2023/07/18 11:05:36;;;;;;;3.97;1.85;;;32.50;32.70;;;;;;4791366;29;20031;-88
2023/07/18 11:12:32;;;;;;;4.03;1.80;;;31.80;32.60;;;;;;4889725;29;20120;-88
2023/07/18 12:27:48;;;;;;;;;;;;;;;;;;;;;
2023/07/18 16:08:36;;;;;;;4.88;2.20;;;30.20;33.60;;;;;;6013997;23;20050;31
2023/07/18 16:11:02;;;;;;;4.03;2.05;;;30.20;33.20;;;;;;4881818;29;20056;-80
2023/07/18 16:13:52;;;;;;;4.85;1.90;;;30.20;33.70;;;;;;4900446;29;20483;-87
2023/07/18 16:20:25;;;;;;;7.30;1.80;;;30.10;33.20;;;;;;4876362;29;20046;-86
2023/07/18 16:30:48;;;;;;;;;;;;;;;;;;;;;
2023/07/18 16:33:40;;;;;;;;;;;;;;;;;;;;;
2023/07/18 16:36:37;;;;;;;4.78;1.83;;;29.20;41.30;;;;;;4789631;30;20051;-87
2023/07/18 16:39:31;;;;;;;5.90;1.95;;;29.10;41.90;;;;;;4772672;30;20550;-88
2023/07/18 16:49:41;;;;;;;6.50;1.75;;;28.40;42.60;;;;;;4814014;29;20030;-85
2023/07/18 16:52:07;;;;;;;8.48;2.00;;;28.50;42.70;;;;;;4821197;29;20035;-81
2023/07/18 16:54:35;;;;;;;5.00;1.63;;;28.50;42.90;;;;;;4882522;29;20043;-82
2023/07/18 16:57:07;;;;;;;5.03;1.98;;;28.30;41.80;;;;;;4898353;29;20543;-84
2023/07/18 16:59:33;;;;;;;6.30;1.58;;;28.00;42.40;;;;;;4883984;29;20089;-84
2023/07/18 17:02:02;;;;;;;4.25;1.70;;;28.00;42.60;;;;;;4897703;29;20035;-83
2023/07/18 17:04:34;;;;;;;3.78;1.63;;;28.00;42.70;;;;;;4885503;29;20033;-84
2023/07/18 17:11:07;;;;;;;4.35;1.50;;;27.60;42.90;;;;;;4846830;29;20524;-83
2023/07/18 17:13:36;;;;;;;5.32;1.58;;;27.40;43.40;;;;;;4855202;29;20030;-87
2023/07/18 17:16:01;;;;;;;4.25;1.70;;;27.40;43.60;;;;;;4889398;29;20119;-85
2023/07/18 17:19:05;;;;;;;4.15;1.45;;;27.30;43.70;;;;;;4882871;29;20119;-85
2023/07/18 17:22:09;;;;;;;;;;;;;;;;;;;;;
2023/07/18 17:25:27;;;;;;;3.85;1.30;;;27.20;44.10;;;;;;4883989;29;20403;-86
2023/07/18 17:28:02;;;;;;;4.70;1.70;;;27.20;44.60;;;;;;4884333;29;20041;-86
2023/07/18 17:30:47;;;;;;;4.68;1.55;;;27.00;44.60;;;;;;4887498;29;20028;-86
2023/07/18 17:33:14;;;;;;;3.97;1.63;;;26.90;44.40;;;;;;4906138;29;20025;-89
2023/07/18 17:35:40;;;;;;;6.28;1.70;;;26.80;44.90;;;;;;4895627;29;20025;-83
2023/07/18 17:38:10;;;;;;;3.90;1.42;;;26.70;44.80;;;;;;4893331;29;20120;-86
2023/07/18 17:40:36;;;;;;;4.05;1.50;;;26.60;45.20;;;;;;4894792;29;20112;-81
2023/07/18 17:43:09;;;;;;;5.63;1.63;;;26.50;45.20;;;;;;4888806;29;20064;-87
2023/07/18 17:46:09;;;;;;;;;;;26.40;45.60;;;;;;4896887;29;20563;-85
2023/07/18 17:48:38;;;;;;;5.78;1.50;;;26.40;46.00;;;;;;4867194;29;19925;-85
2023/07/18 17:52:02;;;;;;;;;;;;;;;;;;;;;
2023/07/18 17:54:33;;;;;;;3.33;1.48;;;26.30;46.30;;;;;;4829799;29;20604;-86
2023/07/18 17:57:02;;;;;;;4.25;1.70;;;26.20;46.40;;;;;;4831467;29;20046;-89
2023/07/18 17:59:28;;;;;;;5.60;2.13;;;26.20;46.70;;;;;;4829386;29;20038;-81
2023/07/18 18:02:42;;;;;;;3.28;1.50;;;26.10;46.50;;;;;;4822484;29;20031;-83
2023/07/18 18:06:06;;;;;;;;;;;;;;;;;;;;;
2023/07/18 18:08:48;;;;;;;5.82;1.75;;;25.90;46.90;;;;;;4859664;29;20612;-85
2023/07/18 18:11:16;;;;;;;5.07;1.63;;;25.80;47.10;;;;;;4859220;29;20552;-86
2023/07/18 18:13:52;;;;;;;4.03;1.60;;;25.80;47.20;;;;;;4866219;29;20029;-87
2023/07/18 18:16:18;;;;;;;6.72;1.58;;;25.80;47.00;;;;;;4886712;29;20060;-83
2023/07/18 18:18:45;;;;;;;2.88;1.25;;;25.80;47.30;;;;;;4904555;29;20024;-88
2023/07/18 18:21:11;;;;;;;4.05;1.38;;;25.70;47.00;;;;;;4886319;29;20033;-84
2023/07/18 18:23:36;;;;;;;4.95;1.50;;;25.60;47.10;;;;;;4888065;29;20020;-83
2023/07/18 18:26:03;;;;;;;5.10;1.33;;;25.50;47.50;;;;;;4904589;29;20040;-82
2023/07/18 18:28:29;;;;;;;3.95;1.40;;;25.30;47.50;;;;;;4882814;29;20040;-87
2023/07/18 18:30:55;;;;;;;6.43;1.77;;;25.30;47.90;;;;;;4888518;29;20582;-85
2023/07/18 18:33:21;;;;;;;7.63;1.50;;;25.20;47.90;;;;;;4903993;29;20468;-81
2023/07/18 18:35:47;;;;;;;4.90;1.52;;;25.20;47.60;;;;;;4904476;29;20035;-86
2023/07/18 18:38:12;;;;;;;3.72;1.30;;;25.10;47.50;;;;;;4886027;29;20083;-82
2023/07/18 18:40:38;;;;;;;4.78;1.70;;;25.10;47.80;;;;;;4906049;29;20025;-83
2023/07/18 18:43:04;;;;;;;5.28;1.30;;;24.90;48.30;;;;;;4898382;29;20057;-81
2023/07/18 18:45:30;;;;;;;5.30;1.42;;;24.80;47.70;;;;;;4899364;29;20060;-80
2023/07/18 18:47:56;;;;;;;3.72;1.40;;;24.70;47.60;;;;;;4879311;29;20033;-80
2023/07/18 18:50:22;;;;;;;5.80;1.35;;;24.70;48.00;;;;;;4877622;29;20566;-78
2023/07/18 18:52:47;;;;;;;3.92;1.42;;;24.70;48.40;;;;;;4884289;29;20032;-77
2023/07/18 18:55:16;;;;;;;3.53;1.30;;;24.70;48.30;;;;;;4893384;29;20085;-77
2023/07/18 18:57:43;;;;;;;3.33;1.35;;;24.70;48.10;;;;;;4880857;29;20100;-75
2023/07/18 19:00:10;;;;;;;3.45;1.40;;;24.60;48.20;;;;;;4892194;29;20047;-75
2023/07/18 19:02:36;;;;;;;4.47;1.38;;;24.50;48.40;;;;;;4879586;29;20052;-75
2023/07/18 19:05:03;;;;;;;4.45;1.35;;;24.40;48.00;;;;;;4898570;29;20452;-75
2023/07/18 19:07:29;;;;;;;7.10;1.40;;;24.30;47.80;;;;;;4875678;29;20119;-77
2023/07/18 19:09:55;;;;;;;3.30;1.20;;;24.30;47.40;;;;;;4897376;29;20036;-73
2023/07/18 19:12:21;;;;;;;3.45;1.02;;;24.10;47.40;;;;;;4900525;29;20039;-74
2023/07/18 19:14:48;;;;;;;3.58;1.27;;;24.00;47.20;;;;;;4895090;29;20032;-75
2023/07/18 19:17:13;;;;;;;6.03;1.13;;;23.90;47.00;;;;;;4889506;29;20038;-74
2023/07/18 19:19:40;;;;;;;2.80;1.10;;;23.80;47.10;;;;;;4890635;29;20028;-74
2023/07/18 19:22:07;;;;;;;3.60;1.20;;;23.60;46.70;;;;;;4896016;29;20075;-74
2023/07/18 19:24:35;;;;;;;4.55;1.20;;;23.70;46.90;;;;;;4897167;29;20115;-74
2023/07/18 19:27:01;;;;;;;5.03;1.60;;;23.50;46.70;;;;;;4861014;29;20033;-74
2023/07/18 19:29:27;;;;;;;6.43;1.50;;;23.50;46.70;;;;;;4895663;29;20035;-74
2023/07/18 19:31:53;;;;;;;4.38;1.30;;;23.50;46.40;;;;;;4898763;29;20028;-74
2023/07/18 19:34:18;;;;;;;2.58;1.15;;;23.40;46.40;;;;;;4899025;29;20036;-74
2023/07/18 19:36:44;;;;;;;3.53;1.20;;;23.30;46.90;;;;;;4897524;29;20058;-74
2023/07/18 19:39:10;;;;;;;2.53;0.90;;;23.30;46.50;;;;;;4894848;29;20120;-74
2023/07/18 19:41:36;;;;;;;3.13;1.25;;;23.00;46.60;;;;;;4897937;29;20117;-74
2023/07/18 19:44:04;;;;;;;3.13;1.00;;;22.80;47.40;;;;;;4896178;29;20036;-74
2023/07/18 19:46:30;;;;;;;2.88;1.20;;;22.80;47.40;;;;;;4893807;29;20040;-74
2023/07/18 19:48:55;;;;;;;4.85;1.33;;;22.90;47.70;;;;;;4882740;29;20029;-74
2023/07/18 19:51:21;;;;;;;2.15;0.90;;;22.80;47.40;;;;;;4896421;29;20013;-74
2023/07/18 19:53:47;;;;;;;3.05;1.40;;;22.80;47.60;;;;;;4881554;29;20077;-74
2023/07/18 19:56:14;;;;;;;4.00;1.15;;;22.80;47.80;;;;;;4885927;29;20491;-75
2023/07/18 19:58:39;;;;;;;4.85;1.20;;;22.70;47.70;;;;;;4879950;29;20032;-75
2023/07/18 20:01:06;;;;;;;2.17;0.80;;;22.70;47.80;;;;;;4882141;29;20476;-75
2023/07/18 20:03:33;;;;;;;3.58;1.10;;;22.60;47.80;;;;;;4898532;29;20041;-75
2023/07/18 20:05:59;;;;;;;4.22;1.05;;;22.60;48.20;;;;;;4899881;29;20033;-74
2023/07/18 20:08:25;;;;;;;5.30;1.23;;;22.50;48.40;;;;;;4885216;29;20169;-75
2023/07/18 20:10:51;;;;;;;5.68;1.30;;;22.40;48.50;;;;;;4897144;29;20131;-75
2023/07/18 20:13:16;;;;;;;3.65;1.10;;;22.40;48.40;;;;;;4901803;29;20028;-75
2023/07/18 20:15:42;;;;;;;4.32;1.05;;;22.30;48.80;;;;;;4887559;29;20068;-76
2023/07/18 20:18:08;;;;;;;3.08;1.10;;;22.30;49.00;;;;;;4899259;29;20039;-75
2023/07/18 20:20:34;;;;;;;6.13;1.30;;;22.20;49.30;;;;;;4896018;29;20059;-75
2023/07/18 20:23:00;;;;;;;5.35;1.00;;;22.20;49.30;;;;;;4886753;29;20020;-75
2023/07/18 20:25:26;;;;;;;3.80;1.20;;;22.10;49.40;;;;;;4897756;29;20070;-75
2023/07/18 20:27:51;;;;;;;3.33;1.20;;;22.10;49.40;;;;;;4900529;29;20073;-76
2023/07/18 20:30:19;;;;;;;2.95;0.90;;;22.10;49.70;;;;;;4886461;29;20120;-76
2023/07/18 20:32:45;;;;;;;5.90;1.35;;;22.00;49.70;;;;;;4900208;29;20028;-75
2023/07/18 20:35:11;;;;;;;2.97;0.85;;;21.90;49.90;;;;;;4892804;29;20033;-75
2023/07/18 20:37:38;;;;;;;4.40;1.27;;;22.00;49.90;;;;;;4891310;29;20035;-75
2023/07/18 20:40:04;;;;;;;3.60;1.20;;;21.90;50.10;;;;;;4896776;29;20528;-75
2023/07/18 20:42:33;;;;;;;2.50;0.90;;;21.90;50.20;;;;;;4897869;29;20025;-75
2023/07/18 20:45:00;;;;;;;2.70;1.17;;;21.80;50.40;;;;;;4893385;29;20020;-76
2023/07/18 20:47:27;;;;;;;2.42;1.05;;;21.80;50.50;;;;;;4891239;29;20063;-76
2023/07/18 20:49:52;;;;;;;2.97;0.90;;;21.70;50.80;;;;;;4900600;29;20028;-75
2023/07/18 20:52:18;;;;;;;3.58;1.48;;;21.70;50.70;;;;;;4900838;29;20025;-75
2023/07/18 20:54:44;;;;;;;3.88;0.90;;;21.70;50.80;;;;;;4896548;29;20041;-76
2023/07/18 20:57:10;;;;;;;2.42;1.10;;;21.70;51.00;;;;;;4898492;29;20020;-75
2023/07/18 20:59:36;;;;;;;4.18;1.35;;;21.60;51.00;;;;;;4901061;29;20033;-75
2023/07/18 21:02:01;;;;;;;3.72;1.05;;;21.50;51.10;;;;;;4892820;29;20084;-75
2023/07/18 21:04:27;;;;;;;2.72;0.82;;;21.40;51.30;;;;;;4891952;29;20036;-75
2023/07/18 21:06:53;;;;;;;1.77;0.80;;;21.40;51.40;;;;;;4900372;29;20103;-75
2023/07/18 21:09:18;;;;;;;3.25;0.98;;;21.30;51.40;;;;;;4897642;29;20059;-75
2023/07/18 21:11:44;;;;;;;5.47;1.42;;;21.20;51.60;;;;;;4900393;29;20044;-78
2023/07/18 21:14:10;;;;;;;2.72;0.90;;;21.20;51.50;;;;;;4896919;29;20068;-75
2023/07/18 21:16:39;;;;;;;5.75;1.10;;;21.20;52.00;;;;;;4900825;29;20029;-75
2023/07/18 21:19:05;;;;;;;5.43;1.30;;;21.10;52.00;;;;;;4894452;29;20028;-78
2023/07/18 21:21:31;;;;;;;2.47;1.00;;;21.00;53.10;;;;;;4880753;29;20033;-75
2023/07/18 21:23:57;;;;;;;5.15;1.00;;;20.90;53.30;;;;;;4900757;29;20032;-75
2023/07/18 21:26:23;;;;;;;3.75;1.00;;;20.90;53.40;;;;;;4897365;29;20027;-75
2023/07/18 21:28:49;;;;;;;5.93;1.17;;;20.90;53.50;;;;;;4900274;29;20108;-75
